sensor_id;sensor_type;location;lat;lon;timestamp;temperature;humidity
11043;DHT22;5574;48.786;10.120;2023-12-20T00:01:57;6.10;99.90
11043;DHT22;5574;48.786;10.120;2023-12-20T00:04:24;6.10;99.90
11043;DHT22;5574;48.786;10.120;2023-12-20T00:06:50;6.10;99.90
11043;DHT22;5574;48.786;10.120;2023-12-20T00:09:19;6.10;99.90
11043;DHT22;5574;48.786;10.120;2023-12-20T00:11:45;6.10;99.90
11043;DHT22;5574;48.786;10.120;2023-12-20T00:14:12;6.10;99.90
11043;DHT22;5574;48.786;10.120;2023-12-20T00:16:39;6.10;99.90
11043;DHT22;5574;48.786;10.120;2023-12-20T00:19:05;6.10;99.90
11043;DHT22;5574;48.786;10.120;2023-12-20T00:21:33;6.10;99.90
11043;DHT22;5574;48.786;10.120;2023-12-20T00:23:59;6.20;99.90
11043;DHT22;5574;48.786;10.120;2023-12-20T00:26:27;6.10;99.90
11043;DHT22;5574;48.786;10.120;2023-12-20T00:28:54;6.20;99.90
11043;DHT22;5574;48.786;10.120;2023-12-20T00:31:21;6.20;99.90
11043;DHT22;5574;48.786;10.120;2023-12-20T00:33:47;6.20;99.90
11043;DHT22;5574;48.786;10.120;2023-12-20T00:36:14;6.20;99.90
11043;DHT22;5574;48.786;10.120;2023-12-20T00:38:41;6.20;99.90
11043;DHT22;5574;48.786;10.120;2023-12-20T00:41:07;6.20;99.90
11043;DHT22;5574;48.786;10.120;2023-12-20T00:43:35;6.20;99.90
11043;DHT22;5574;48.786;10.120;2023-12-20T00:46:02;6.30;99.90
11043;DHT22;5574;48.786;10.120;2023-12-20T00:48:29;6.30;99.90
11043;DHT22;5574;48.786;10.120;2023-12-20T00:50:56;6.30;99.90
11043;DHT22;5574;48.786;10.120;2023-12-20T00:53:23;6.30;99.90
11043;DHT22;5574;48.786;10.120;2023-12-20T00:55:50;6.30;99.90
11043;DHT22;5574;48.786;10.120;2023-12-20T00:58:17;6.40;99.90
11043;DHT22;5574;48.786;10.120;2023-12-20T01:00:45;6.40;99.90
11043;DHT22;5574;48.786;10.120;2023-12-20T01:03:12;6.40;99.90
11043;DHT22;5574;48.786;10.120;2023-12-20T01:05:39;6.40;99.90
11043;DHT22;5574;48.786;10.120;2023-12-20T01:08:06;6.40;99.90
11043;DHT22;5574;48.786;10.120;2023-12-20T01:10:33;6.40;99.90
11043;DHT22;5574;48.786;10.120;2023-12-20T01:13:00;6.40;99.90
11043;DHT22;5574;48.786;10.120;2023-12-20T01:15:26;6.40;99.90
11043;DHT22;5574;48.786;10.120;2023-12-20T01:17:54;6.40;99.90
11043;DHT22;5574;48.786;10.120;2023-12-20T01:20:22;6.40;99.90
11043;DHT22;5574;48.786;10.120;2023-12-20T01:22:49;6.30;99.90
11043;DHT22;5574;48.786;10.120;2023-12-20T01:25:15;6.30;99.90
11043;DHT22;5574;48.786;10.120;2023-12-20T01:27:42;6.30;99.90
11043;DHT22;5574;48.786;10.120;2023-12-20T01:30:09;6.30;99.90
11043;DHT22;5574;48.786;10.120;2023-12-20T01:32:36;6.30;99.90
11043;DHT22;5574;48.786;10.120;2023-12-20T01:35:04;6.20;99.90
11043;DHT22;5574;48.786;10.120;2023-12-20T01:37:31;6.20;99.90
11043;DHT22;5574;48.786;10.120;2023-12-20T01:39:58;6.20;99.90
11043;DHT22;5574;48.786;10.120;2023-12-20T01:42:25;6.20;99.90
11043;DHT22;5574;48.786;10.120;2023-12-20T01:44:51;6.20;99.90
11043;DHT22;5574;48.786;10.120;2023-12-20T01:47:18;6.10;99.90
11043;DHT22;5574;48.786;10.120;2023-12-20T01:49:45;6.10;99.90
11043;DHT22;5574;48.786;10.120;2023-12-20T01:52:13;6.10;99.90
11043;DHT22;5574;48.786;10.120;2023-12-20T01:54:40;6.10;99.90
11043;DHT22;5574;48.786;10.120;2023-12-20T01:57:08;6.10;99.90
11043;DHT22;5574;48.786;10.120;2023-12-20T01:59:36;6.10;99.90
11043;DHT22;5574;48.786;10.120;2023-12-20T02:02:03;6.10;99.90
11043;DHT22;5574;48.786;10.120;2023-12-20T02:04:30;6.10;99.90
11043;DHT22;5574;48.786;10.120;2023-12-20T02:06:57;6.10;99.90
11043;DHT22;5574;48.786;10.120;2023-12-20T02:09:26;6.10;99.90
11043;DHT22;5574;48.786;10.120;2023-12-20T02:11:54;6.10;99.90
11043;DHT22;5574;48.786;10.120;2023-12-20T02:14:21;6.10;99.90
11043;DHT22;5574;48.786;10.120;2023-12-20T02:16:48;6.10;99.90
11043;DHT22;5574;48.786;10.120;2023-12-20T02:19:15;6.00;99.90
11043;DHT22;5574;48.786;10.120;2023-12-20T02:21:45;6.00;99.90
11043;DHT22;5574;48.786;10.120;2023-12-20T02:24:12;6.00;99.90
11043;DHT22;5574;48.786;10.120;2023-12-20T02:26:38;6.00;99.90
11043;DHT22;5574;48.786;10.120;2023-12-20T02:29:05;5.90;99.90
11043;DHT22;5574;48.786;10.120;2023-12-20T02:31:32;5.90;99.90
11043;DHT22;5574;48.786;10.120;2023-12-20T02:33:58;5.90;99.90
11043;DHT22;5574;48.786;10.120;2023-12-20T02:36:25;5.80;99.90
11043;DHT22;5574;48.786;10.120;2023-12-20T02:38:53;5.80;99.90
11043;DHT22;5574;48.786;10.120;2023-12-20T02:41:20;5.70;99.90
11043;DHT22;5574;48.786;10.120;2023-12-20T02:43:47;5.70;99.90
11043;DHT22;5574;48.786;10.120;2023-12-20T02:46:15;5.70;99.90
11043;DHT22;5574;48.786;10.120;2023-12-20T02:48:43;5.60;99.90
11043;DHT22;5574;48.786;10.120;2023-12-20T02:51:09;5.60;99.90
11043;DHT22;5574;48.786;10.120;2023-12-20T02:53:36;5.60;99.90
11043;DHT22;5574;48.786;10.120;2023-12-20T02:56:05;5.60;99.90
11043;DHT22;5574;48.786;10.120;2023-12-20T02:58:31;5.60;99.90
11043;DHT22;5574;48.786;10.120;2023-12-20T03:00:58;5.60;99.90
11043;DHT22;5574;48.786;10.120;2023-12-20T03:03:25;5.60;99.90
11043;DHT22;5574;48.786;10.120;2023-12-20T03:05:52;5.50;99.90
11043;DHT22;5574;48.786;10.120;2023-12-20T03:08:18;5.50;99.90
11043;DHT22;5574;48.786;10.120;2023-12-20T03:10:45;5.60;99.90
11043;DHT22;5574;48.786;10.120;2023-12-20T03:13:13;5.50;99.90
11043;DHT22;5574;48.786;10.120;2023-12-20T03:15:40;5.50;99.90
11043;DHT22;5574;48.786;10.120;2023-12-20T03:18:06;5.50;99.90
11043;DHT22;5574;48.786;10.120;2023-12-20T03:20:33;5.60;99.90
11043;DHT22;5574;48.786;10.120;2023-12-20T03:23:00;5.60;99.90
11043;DHT22;5574;48.786;10.120;2023-12-20T03:25:26;5.60;99.90
11043;DHT22;5574;48.786;10.120;2023-12-20T03:27:53;5.60;99.90
11043;DHT22;5574;48.786;10.120;2023-12-20T03:30:21;5.60;99.90
11043;DHT22;5574;48.786;10.120;2023-12-20T03:32:48;5.60;99.90
11043;DHT22;5574;48.786;10.120;2023-12-20T03:35:14;5.60;99.90
11043;DHT22;5574;48.786;10.120;2023-12-20T03:37:41;5.60;99.90
11043;DHT22;5574;48.786;10.120;2023-12-20T03:40:08;5.60;99.90
11043;DHT22;5574;48.786;10.120;2023-12-20T03:42:35;5.60;99.90
11043;DHT22;5574;48.786;10.120;2023-12-20T03:45:02;5.60;99.90
11043;DHT22;5574;48.786;10.120;2023-12-20T03:47:30;5.50;99.90
11043;DHT22;5574;48.786;10.120;2023-12-20T03:49:57;5.60;99.90
11043;DHT22;5574;48.786;10.120;2023-12-20T03:52:23;5.50;99.90
11043;DHT22;5574;48.786;10.120;2023-12-20T03:54:50;5.50;99.90
11043;DHT22;5574;48.786;10.120;2023-12-20T03:57:17;5.50;99.90
11043;DHT22;5574;48.786;10.120;2023-12-20T03:59:43;5.50;99.90
11043;DHT22;5574;48.786;10.120;2023-12-20T04:02:10;5.50;99.90
11043;DHT22;5574;48.786;10.120;2023-12-20T04:04:38;5.50;99.90
11043;DHT22;5574;48.786;10.120;2023-12-20T04:07:04;5.50;99.90
11043;DHT22;5574;48.786;10.120;2023-12-20T04:09:30;5.50;99.90
11043;DHT22;5574;48.786;10.120;2023-12-20T04:11:57;5.50;99.90
11043;DHT22;5574;48.786;10.120;2023-12-20T04:14:24;5.50;99.90
11043;DHT22;5574;48.786;10.120;2023-12-20T04:16:51;5.50;99.90
11043;DHT22;5574;48.786;10.120;2023-12-20T04:19:17;5.40;99.90
11043;DHT22;5574;48.786;10.120;2023-12-20T04:21:45;5.40;99.90
11043;DHT22;5574;48.786;10.120;2023-12-20T04:24:12;5.40;99.90
11043;DHT22;5574;48.786;10.120;2023-12-20T04:26:39;5.40;99.90
11043;DHT22;5574;48.786;10.120;2023-12-20T04:29:05;5.30;99.90
11043;DHT22;5574;48.786;10.120;2023-12-20T04:31:32;5.30;99.90
11043;DHT22;5574;48.786;10.120;2023-12-20T04:33:59;5.30;99.90
11043;DHT22;5574;48.786;10.120;2023-12-20T04:36:25;5.30;99.90
11043;DHT22;5574;48.786;10.120;2023-12-20T04:38:56;5.20;99.90
11043;DHT22;5574;48.786;10.120;2023-12-20T04:41:23;5.20;99.90
11043;DHT22;5574;48.786;10.120;2023-12-20T04:43:49;5.20;99.90
11043;DHT22;5574;48.786;10.120;2023-12-20T04:46:16;5.20;99.90
11043;DHT22;5574;48.786;10.120;2023-12-20T04:48:43;5.20;99.90
11043;DHT22;5574;48.786;10.120;2023-12-20T04:51:10;5.10;99.90
11043;DHT22;5574;48.786;10.120;2023-12-20T04:53:36;5.10;99.90
11043;DHT22;5574;48.786;10.120;2023-12-20T04:56:05;5.10;99.90
11043;DHT22;5574;48.786;10.120;2023-12-20T04:58:32;5.10;99.90
11043;DHT22;5574;48.786;10.120;2023-12-20T05:00:58;5.10;99.90
11043;DHT22;5574;48.786;10.120;2023-12-20T05:03:25;5.10;99.90
11043;DHT22;5574;48.786;10.120;2023-12-20T05:05:52;5.10;99.90
11043;DHT22;5574;48.786;10.120;2023-12-20T05:08:18;5.00;99.90
11043;DHT22;5574;48.786;10.120;2023-12-20T05:10:45;5.00;99.90
11043;DHT22;5574;48.786;10.120;2023-12-20T05:13:13;5.00;99.90
11043;DHT22;5574;48.786;10.120;2023-12-20T05:15:40;5.00;99.90
11043;DHT22;5574;48.786;10.120;2023-12-20T05:18:06;5.00;99.90
11043;DHT22;5574;48.786;10.120;2023-12-20T05:20:33;5.00;99.90
11043;DHT22;5574;48.786;10.120;2023-12-20T05:23:00;5.00;99.90
11043;DHT22;5574;48.786;10.120;2023-12-20T05:25:26;5.00;99.90
11043;DHT22;5574;48.786;10.120;2023-12-20T05:27:53;5.00;99.90
11043;DHT22;5574;48.786;10.120;2023-12-20T05:30:21;5.00;99.90
11043;DHT22;5574;48.786;10.120;2023-12-20T05:32:48;5.00;99.90
11043;DHT22;5574;48.786;10.120;2023-12-20T05:35:15;5.00;99.90
11043;DHT22;5574;48.786;10.120;2023-12-20T05:37:42;5.00;99.90
11043;DHT22;5574;48.786;10.120;2023-12-20T05:40:10;4.90;99.90
11043;DHT22;5574;48.786;10.120;2023-12-20T05:42:37;4.90;99.90
11043;DHT22;5574;48.786;10.120;2023-12-20T05:45:04;4.90;99.90
11043;DHT22;5574;48.786;10.120;2023-12-20T05:47:32;4.90;99.90
11043;DHT22;5574;48.786;10.120;2023-12-20T05:49:59;4.90;99.90
11043;DHT22;5574;48.786;10.120;2023-12-20T05:52:26;4.90;99.90
11043;DHT22;5574;48.786;10.120;2023-12-20T05:54:52;4.90;99.90
11043;DHT22;5574;48.786;10.120;2023-12-20T05:57:19;4.90;99.90
11043;DHT22;5574;48.786;10.120;2023-12-20T05:59:46;4.90;99.90
11043;DHT22;5574;48.786;10.120;2023-12-20T06:02:12;4.90;99.90
11043;DHT22;5574;48.786;10.120;2023-12-20T06:04:43;4.90;99.90
11043;DHT22;5574;48.786;10.120;2023-12-20T06:07:11;4.90;99.90
11043;DHT22;5574;48.786;10.120;2023-12-20T06:09:38;5.00;99.90
11043;DHT22;5574;48.786;10.120;2023-12-20T06:12:06;5.00;99.90
11043;DHT22;5574;48.786;10.120;2023-12-20T06:14:33;5.00;99.90
11043;DHT22;5574;48.786;10.120;2023-12-20T06:17:00;4.90;99.90
11043;DHT22;5574;48.786;10.120;2023-12-20T06:19:27;5.00;99.90
11043;DHT22;5574;48.786;10.120;2023-12-20T06:21:55;5.00;99.90
11043;DHT22;5574;48.786;10.120;2023-12-20T06:24:22;5.00;99.90
11043;DHT22;5574;48.786;10.120;2023-12-20T06:26:52;5.00;99.90
11043;DHT22;5574;48.786;10.120;2023-12-20T06:29:19;5.00;99.90
11043;DHT22;5574;48.786;10.120;2023-12-20T06:31:46;5.00;99.90
11043;DHT22;5574;48.786;10.120;2023-12-20T06:34:12;5.00;99.90
11043;DHT22;5574;48.786;10.120;2023-12-20T06:36:39;5.00;99.90
11043;DHT22;5574;48.786;10.120;2023-12-20T06:39:07;5.00;99.90
11043;DHT22;5574;48.786;10.120;2023-12-20T06:41:34;5.00;99.90
11043;DHT22;5574;48.786;10.120;2023-12-20T06:44:00;5.00;99.90
11043;DHT22;5574;48.786;10.120;2023-12-20T06:46:27;5.00;99.90
11043;DHT22;5574;48.786;10.120;2023-12-20T06:48:54;5.00;99.90
11043;DHT22;5574;48.786;10.120;2023-12-20T06:51:20;5.10;99.90
11043;DHT22;5574;48.786;10.120;2023-12-20T06:53:50;5.10;99.90
11043;DHT22;5574;48.786;10.120;2023-12-20T06:56:18;5.00;99.90
11043;DHT22;5574;48.786;10.120;2023-12-20T06:58:45;5.10;99.90
11043;DHT22;5574;48.786;10.120;2023-12-20T07:01:12;5.10;99.90
11043;DHT22;5574;48.786;10.120;2023-12-20T07:03:39;5.10;99.90
11043;DHT22;5574;48.786;10.120;2023-12-20T07:06:06;5.10;99.90
11043;DHT22;5574;48.786;10.120;2023-12-20T07:08:32;5.10;99.90
11043;DHT22;5574;48.786;10.120;2023-12-20T07:10:59;5.10;99.90
11043;DHT22;5574;48.786;10.120;2023-12-20T07:13:27;5.20;99.90
11043;DHT22;5574;48.786;10.120;2023-12-20T07:15:54;5.20;99.90
11043;DHT22;5574;48.786;10.120;2023-12-20T07:18:20;5.20;99.90
11043;DHT22;5574;48.786;10.120;2023-12-20T07:20:47;5.20;99.90
11043;DHT22;5574;48.786;10.120;2023-12-20T07:23:14;5.20;99.90
11043;DHT22;5574;48.786;10.120;2023-12-20T07:25:40;5.20;99.90
11043;DHT22;5574;48.786;10.120;2023-12-20T07:28:07;5.20;99.90
11043;DHT22;5574;48.786;10.120;2023-12-20T07:30:35;5.20;99.90
11043;DHT22;5574;48.786;10.120;2023-12-20T07:33:02;5.20;99.90
11043;DHT22;5574;48.786;10.120;2023-12-20T07:35:29;5.20;99.90
11043;DHT22;5574;48.786;10.120;2023-12-20T07:37:55;5.20;99.90
11043;DHT22;5574;48.786;10.120;2023-12-20T07:40:23;5.20;99.90
11043;DHT22;5574;48.786;10.120;2023-12-20T07:42:50;5.20;99.90
11043;DHT22;5574;48.786;10.120;2023-12-20T07:45:16;5.20;99.90
11043;DHT22;5574;48.786;10.120;2023-12-20T07:47:44;5.20;99.90
11043;DHT22;5574;48.786;10.120;2023-12-20T07:50:11;5.20;99.90
11043;DHT22;5574;48.786;10.120;2023-12-20T07:52:38;5.20;99.90
11043;DHT22;5574;48.786;10.120;2023-12-20T07:55:05;5.30;99.90
11043;DHT22;5574;48.786;10.120;2023-12-20T07:57:32;5.30;99.90
11043;DHT22;5574;48.786;10.120;2023-12-20T07:59:59;5.30;99.90
11043;DHT22;5574;48.786;10.120;2023-12-20T08:02:25;5.30;99.90
11043;DHT22;5574;48.786;10.120;2023-12-20T08:04:53;5.30;99.90
11043;DHT22;5574;48.786;10.120;2023-12-20T08:07:20;5.30;99.90
11043;DHT22;5574;48.786;10.120;2023-12-20T08:09:46;5.30;99.90
11043;DHT22;5574;48.786;10.120;2023-12-20T08:12:13;5.20;99.90
11043;DHT22;5574;48.786;10.120;2023-12-20T08:14:42;5.30;99.90
11043;DHT22;5574;48.786;10.120;2023-12-20T08:17:09;5.30;99.90
11043;DHT22;5574;48.786;10.120;2023-12-20T08:19:35;5.30;99.90
11043;DHT22;5574;48.786;10.120;2023-12-20T08:22:03;5.30;99.90
11043;DHT22;5574;48.786;10.120;2023-12-20T08:24:30;5.30;99.90
11043;DHT22;5574;48.786;10.120;2023-12-20T08:26:57;5.30;99.90
11043;DHT22;5574;48.786;10.120;2023-12-20T08:29:23;5.30;99.90
11043;DHT22;5574;48.786;10.120;2023-12-20T08:31:52;5.30;99.90
11043;DHT22;5574;48.786;10.120;2023-12-20T08:34:19;5.30;99.90
11043;DHT22;5574;48.786;10.120;2023-12-20T08:36:46;5.30;99.90
11043;DHT22;5574;48.786;10.120;2023-12-20T08:39:14;5.40;99.90
11043;DHT22;5574;48.786;10.120;2023-12-20T08:41:41;5.40;99.90
11043;DHT22;5574;48.786;10.120;2023-12-20T08:44:08;5.40;99.90
11043;DHT22;5574;48.786;10.120;2023-12-20T08:46:35;5.40;99.90
11043;DHT22;5574;48.786;10.120;2023-12-20T08:49:02;5.50;99.90
11043;DHT22;5574;48.786;10.120;2023-12-20T08:51:28;5.50;99.90
11043;DHT22;5574;48.786;10.120;2023-12-20T08:53:55;5.50;99.90
11043;DHT22;5574;48.786;10.120;2023-12-20T08:56:23;5.50;99.90
11043;DHT22;5574;48.786;10.120;2023-12-20T08:58:50;5.40;99.90
11043;DHT22;5574;48.786;10.120;2023-12-20T09:01:17;5.40;99.90
11043;DHT22;5574;48.786;10.120;2023-12-20T09:03:43;5.40;99.90
11043;DHT22;5574;48.786;10.120;2023-12-20T09:06:10;5.40;99.90
11043;DHT22;5574;48.786;10.120;2023-12-20T09:08:37;5.40;99.90
11043;DHT22;5574;48.786;10.120;2023-12-20T09:11:03;5.40;99.90
11043;DHT22;5574;48.786;10.120;2023-12-20T09:13:31;5.30;99.90
11043;DHT22;5574;48.786;10.120;2023-12-20T09:15:58;5.30;99.90
11043;DHT22;5574;48.786;10.120;2023-12-20T09:18:25;5.30;99.90
11043;DHT22;5574;48.786;10.120;2023-12-20T09:20:51;5.30;99.90
11043;DHT22;5574;48.786;10.120;2023-12-20T09:23:18;5.30;99.90
11043;DHT22;5574;48.786;10.120;2023-12-20T09:25:45;5.30;99.90
11043;DHT22;5574;48.786;10.120;2023-12-20T09:28:12;5.30;99.90
11043;DHT22;5574;48.786;10.120;2023-12-20T09:30:39;5.40;99.90
11043;DHT22;5574;48.786;10.120;2023-12-20T09:33:06;5.40;99.90
11043;DHT22;5574;48.786;10.120;2023-12-20T09:35:33;5.30;99.90
11043;DHT22;5574;48.786;10.120;2023-12-20T09:38:00;5.30;99.90
11043;DHT22;5574;48.786;10.120;2023-12-20T09:40:26;5.40;99.90
11043;DHT22;5574;48.786;10.120;2023-12-20T09:42:57;5.40;99.90
11043;DHT22;5574;48.786;10.120;2023-12-20T09:45:24;5.40;99.90
11043;DHT22;5574;48.786;10.120;2023-12-20T09:47:53;5.50;99.90
11043;DHT22;5574;48.786;10.120;2023-12-20T09:50:21;5.50;99.90
11043;DHT22;5574;48.786;10.120;2023-12-20T09:52:50;5.50;99.90
11043;DHT22;5574;48.786;10.120;2023-12-20T09:55:17;5.50;99.90
11043;DHT22;5574;48.786;10.120;2023-12-20T09:57:44;5.50;99.90
11043;DHT22;5574;48.786;10.120;2023-12-20T10:00:12;5.50;99.90
11043;DHT22;5574;48.786;10.120;2023-12-20T10:02:45;5.50;99.90
11043;DHT22;5574;48.786;10.120;2023-12-20T10:05:18;5.50;99.90
11043;DHT22;5574;48.786;10.120;2023-12-20T10:07:45;5.40;99.90
11043;DHT22;5574;48.786;10.120;2023-12-20T10:10:13;5.40;99.90
11043;DHT22;5574;48.786;10.120;2023-12-20T10:12:40;5.40;99.90
11043;DHT22;5574;48.786;10.120;2023-12-20T10:15:07;5.30;99.90
11043;DHT22;5574;48.786;10.120;2023-12-20T10:17:35;5.30;99.90
11043;DHT22;5574;48.786;10.120;2023-12-20T10:20:03;5.20;99.90
11043;DHT22;5574;48.786;10.120;2023-12-20T10:22:36;5.20;99.90
11043;DHT22;5574;48.786;10.120;2023-12-20T10:25:04;5.20;99.90
11043;DHT22;5574;48.786;10.120;2023-12-20T10:27:30;5.20;99.90
11043;DHT22;5574;48.786;10.120;2023-12-20T10:29:58;5.30;99.90
11043;DHT22;5574;48.786;10.120;2023-12-20T10:32:26;5.40;99.90
11043;DHT22;5574;48.786;10.120;2023-12-20T10:34:55;5.40;99.90
11043;DHT22;5574;48.786;10.120;2023-12-20T10:37:21;5.50;99.90
11043;DHT22;5574;48.786;10.120;2023-12-20T10:39:51;5.50;99.90
11043;DHT22;5574;48.786;10.120;2023-12-20T10:42:20;5.60;99.90
11043;DHT22;5574;48.786;10.120;2023-12-20T10:44:48;5.60;99.90
11043;DHT22;5574;48.786;10.120;2023-12-20T10:47:16;5.60;99.90
11043;DHT22;5574;48.786;10.120;2023-12-20T10:49:45;5.60;99.90
11043;DHT22;5574;48.786;10.120;2023-12-20T10:52:12;5.60;99.90
11043;DHT22;5574;48.786;10.120;2023-12-20T10:54:39;5.50;99.90
11043;DHT22;5574;48.786;10.120;2023-12-20T10:57:08;5.60;99.90
11043;DHT22;5574;48.786;10.120;2023-12-20T10:59:36;5.60;99.90
11043;DHT22;5574;48.786;10.120;2023-12-20T11:02:04;5.70;99.90
11043;DHT22;5574;48.786;10.120;2023-12-20T11:04:36;5.70;99.90
11043;DHT22;5574;48.786;10.120;2023-12-20T11:07:12;5.70;99.90
11043;DHT22;5574;48.786;10.120;2023-12-20T11:09:47;5.70;99.90
11043;DHT22;5574;48.786;10.120;2023-12-20T11:12:19;5.70;99.90
11043;DHT22;5574;48.786;10.120;2023-12-20T11:14:51;5.70;99.90
11043;DHT22;5574;48.786;10.120;2023-12-20T11:17:19;5.70;99.90
11043;DHT22;5574;48.786;10.120;2023-12-20T11:20:06;5.70;99.90
11043;DHT22;5574;48.786;10.120;2023-12-20T11:22:33;5.70;99.90
11043;DHT22;5574;48.786;10.120;2023-12-20T11:25:04;5.90;99.90
11043;DHT22;5574;48.786;10.120;2023-12-20T11:27:33;6.00;99.90
11043;DHT22;5574;48.786;10.120;2023-12-20T11:30:02;6.10;99.90
11043;DHT22;5574;48.786;10.120;2023-12-20T11:32:32;6.10;99.90
11043;DHT22;5574;48.786;10.120;2023-12-20T11:35:01;6.10;99.90
11043;DHT22;5574;48.786;10.120;2023-12-20T11:37:32;6.00;99.90
11043;DHT22;5574;48.786;10.120;2023-12-20T11:40:02;5.90;99.90
11043;DHT22;5574;48.786;10.120;2023-12-20T11:42:38;5.90;99.90
11043;DHT22;5574;48.786;10.120;2023-12-20T11:45:06;5.80;99.90
11043;DHT22;5574;48.786;10.120;2023-12-20T11:47:34;5.90;99.90
11043;DHT22;5574;48.786;10.120;2023-12-20T11:50:01;5.80;99.90
11043;DHT22;5574;48.786;10.120;2023-12-20T11:52:29;5.80;99.90
11043;DHT22;5574;48.786;10.120;2023-12-20T11:54:57;5.90;99.90
11043;DHT22;5574;48.786;10.120;2023-12-20T11:57:24;5.90;99.90
11043;DHT22;5574;48.786;10.120;2023-12-20T11:59:52;5.90;99.90
11043;DHT22;5574;48.786;10.120;2023-12-20T12:02:19;5.90;99.90
11043;DHT22;5574;48.786;10.120;2023-12-20T12:04:48;6.00;99.90
11043;DHT22;5574;48.786;10.120;2023-12-20T12:07:16;6.10;99.90
11043;DHT22;5574;48.786;10.120;2023-12-20T12:09:42;6.10;99.90
11043;DHT22;5574;48.786;10.120;2023-12-20T12:12:09;6.10;99.90
11043;DHT22;5574;48.786;10.120;2023-12-20T12:14:37;6.20;99.90
11043;DHT22;5574;48.786;10.120;2023-12-20T12:17:10;6.30;99.90
11043;DHT22;5574;48.786;10.120;2023-12-20T12:19:36;6.20;99.90
11043;DHT22;5574;48.786;10.120;2023-12-20T12:22:06;6.10;99.90
11043;DHT22;5574;48.786;10.120;2023-12-20T12:24:35;6.20;99.90
11043;DHT22;5574;48.786;10.120;2023-12-20T12:27:02;6.10;99.90
11043;DHT22;5574;48.786;10.120;2023-12-20T12:29:29;6.20;99.90
11043;DHT22;5574;48.786;10.120;2023-12-20T12:31:56;6.20;99.90
11043;DHT22;5574;48.786;10.120;2023-12-20T12:34:24;6.30;99.90
11043;DHT22;5574;48.786;10.120;2023-12-20T12:36:53;6.40;99.90
11043;DHT22;5574;48.786;10.120;2023-12-20T12:39:20;6.40;99.90
11043;DHT22;5574;48.786;10.120;2023-12-20T12:41:46;6.40;99.90
11043;DHT22;5574;48.786;10.120;2023-12-20T12:44:13;6.40;99.90
11043;DHT22;5574;48.786;10.120;2023-12-20T12:46:40;6.30;99.90
11043;DHT22;5574;48.786;10.120;2023-12-20T12:49:07;6.30;99.90
11043;DHT22;5574;48.786;10.120;2023-12-20T12:51:35;6.10;99.90
11043;DHT22;5574;48.786;10.120;2023-12-20T12:54:09;6.10;99.90
11043;DHT22;5574;48.786;10.120;2023-12-20T12:56:36;6.00;99.90
11043;DHT22;5574;48.786;10.120;2023-12-20T12:59:03;5.90;99.90
11043;DHT22;5574;48.786;10.120;2023-12-20T13:01:31;5.90;99.90
11043;DHT22;5574;48.786;10.120;2023-12-20T13:03:58;5.90;99.90
11043;DHT22;5574;48.786;10.120;2023-12-20T13:06:26;5.80;99.90
11043;DHT22;5574;48.786;10.120;2023-12-20T13:08:53;5.80;99.90
11043;DHT22;5574;48.786;10.120;2023-12-20T13:11:22;5.80;99.90
11043;DHT22;5574;48.786;10.120;2023-12-20T13:13:48;5.80;99.90
11043;DHT22;5574;48.786;10.120;2023-12-20T13:16:15;5.80;99.90
11043;DHT22;5574;48.786;10.120;2023-12-20T13:18:41;5.80;99.90
11043;DHT22;5574;48.786;10.120;2023-12-20T13:21:08;5.80;99.90
11043;DHT22;5574;48.786;10.120;2023-12-20T13:23:35;5.70;99.90
11043;DHT22;5574;48.786;10.120;2023-12-20T13:26:01;5.70;99.90
11043;DHT22;5574;48.786;10.120;2023-12-20T13:28:29;5.60;99.90
11043;DHT22;5574;48.786;10.120;2023-12-20T13:30:56;5.60;99.90
11043;DHT22;5574;48.786;10.120;2023-12-20T13:33:22;5.60;99.90
11043;DHT22;5574;48.786;10.120;2023-12-20T13:35:49;5.60;99.90
11043;DHT22;5574;48.786;10.120;2023-12-20T13:38:16;5.50;99.90
11043;DHT22;5574;48.786;10.120;2023-12-20T13:40:43;5.50;99.90
11043;DHT22;5574;48.786;10.120;2023-12-20T13:43:09;5.50;99.90
11043;DHT22;5574;48.786;10.120;2023-12-20T13:45:39;5.50;99.90
11043;DHT22;5574;48.786;10.120;2023-12-20T13:48:06;5.50;99.90
11043;DHT22;5574;48.786;10.120;2023-12-20T13:50:33;5.50;99.90
11043;DHT22;5574;48.786;10.120;2023-12-20T13:53:00;5.40;99.90
11043;DHT22;5574;48.786;10.120;2023-12-20T13:55:29;5.40;99.90
11043;DHT22;5574;48.786;10.120;2023-12-20T13:57:56;5.40;99.90
11043;DHT22;5574;48.786;10.120;2023-12-20T14:00:23;5.40;99.90
11043;DHT22;5574;48.786;10.120;2023-12-20T14:02:51;5.30;99.90
11043;DHT22;5574;48.786;10.120;2023-12-20T14:05:18;5.30;99.90
11043;DHT22;5574;48.786;10.120;2023-12-20T14:07:44;5.30;99.90
11043;DHT22;5574;48.786;10.120;2023-12-20T14:10:11;5.30;99.90
11043;DHT22;5574;48.786;10.120;2023-12-20T14:12:38;5.30;99.90
11043;DHT22;5574;48.786;10.120;2023-12-20T14:15:06;5.30;99.90
11043;DHT22;5574;48.786;10.120;2023-12-20T14:17:36;5.30;99.90
11043;DHT22;5574;48.786;10.120;2023-12-20T14:20:05;5.30;99.90
11043;DHT22;5574;48.786;10.120;2023-12-20T14:22:33;5.20;99.90
11043;DHT22;5574;48.786;10.120;2023-12-20T14:24:59;5.20;99.90
11043;DHT22;5574;48.786;10.120;2023-12-20T14:27:26;5.10;99.90
11043;DHT22;5574;48.786;10.120;2023-12-20T14:29:54;5.10;99.90
11043;DHT22;5574;48.786;10.120;2023-12-20T14:32:20;5.10;99.90
11043;DHT22;5574;48.786;10.120;2023-12-20T14:34:47;5.10;99.90
11043;DHT22;5574;48.786;10.120;2023-12-20T14:37:15;5.10;99.90
11043;DHT22;5574;48.786;10.120;2023-12-20T14:39:42;5.00;99.90
11043;DHT22;5574;48.786;10.120;2023-12-20T14:42:09;5.10;99.90
11043;DHT22;5574;48.786;10.120;2023-12-20T14:44:39;5.00;99.90
11043;DHT22;5574;48.786;10.120;2023-12-20T14:47:06;5.00;99.90
11043;DHT22;5574;48.786;10.120;2023-12-20T14:49:33;5.00;99.90
11043;DHT22;5574;48.786;10.120;2023-12-20T14:52:00;5.00;99.90
11043;DHT22;5574;48.786;10.120;2023-12-20T14:54:28;5.00;99.90
11043;DHT22;5574;48.786;10.120;2023-12-20T14:56:55;5.00;99.90
11043;DHT22;5574;48.786;10.120;2023-12-20T14:59:22;5.00;99.90
11043;DHT22;5574;48.786;10.120;2023-12-20T15:01:48;5.00;99.90
11043;DHT22;5574;48.786;10.120;2023-12-20T15:04:16;5.00;99.90
11043;DHT22;5574;48.786;10.120;2023-12-20T15:06:42;5.00;99.90
11043;DHT22;5574;48.786;10.120;2023-12-20T15:09:10;5.00;99.90
11043;DHT22;5574;48.786;10.120;2023-12-20T15:11:38;5.00;99.90
11043;DHT22;5574;48.786;10.120;2023-12-20T15:14:05;4.90;99.90
11043;DHT22;5574;48.786;10.120;2023-12-20T15:16:32;4.90;99.90
11043;DHT22;5574;48.786;10.120;2023-12-20T15:18:59;5.00;99.90
11043;DHT22;5574;48.786;10.120;2023-12-20T15:21:26;4.90;99.90
11043;DHT22;5574;48.786;10.120;2023-12-20T15:23:57;4.90;99.90
11043;DHT22;5574;48.786;10.120;2023-12-20T15:26:31;4.90;99.90
11043;DHT22;5574;48.786;10.120;2023-12-20T15:29:00;4.90;99.90
11043;DHT22;5574;48.786;10.120;2023-12-20T15:31:26;4.90;99.90
11043;DHT22;5574;48.786;10.120;2023-12-20T15:33:53;4.80;99.90
11043;DHT22;5574;48.786;10.120;2023-12-20T15:36:20;4.80;99.90
11043;DHT22;5574;48.786;10.120;2023-12-20T15:38:46;4.80;99.90
11043;DHT22;5574;48.786;10.120;2023-12-20T15:41:17;4.90;99.90
11043;DHT22;5574;48.786;10.120;2023-12-20T15:43:44;4.90;99.90
11043;DHT22;5574;48.786;10.120;2023-12-20T15:46:13;4.90;99.90